Time;durP1;ratioP1;P1;durP2;ratioP2;P2;SDS_P1;SDS_P2;PMS_P1;PMS_P2;Temp;Humidity;BMP_temperature;BMP_pressure;BME280_temperature;BME280_humidity;BME280_pressure;Samples;Min_cycle;Max_cycle;Signal;HPM_P1;HPM_P2
2021/08/02 00:00:40;;;;;;;5.40;2.83;;;14.50;90.20;;;;;;5092854;28;20020;-76
2021/08/02 00:03:23;;;;;;;9.40;4.07;;;14.60;90.20;;;;;;5093118;28;20031;-78
2021/08/02 00:05:53;;;;;;;10.45;4.25;;;14.60;90.20;;;;;;5092840;28;20081;-75
2021/08/02 00:08:24;;;;;;;8.07;3.93;;;14.60;90.20;;;;;;5093171;28;20043;-77
2021/08/02 00:10:51;;;;;;;10.00;3.95;;;14.60;90.10;;;;;;5093271;28;20828;-76
2021/08/02 00:13:27;;;;;;;7.47;3.20;;;14.60;90.10;;;;;;5094273;28;20139;-77
2021/08/02 00:15:55;;;;;;;5.82;3.05;;;14.60;90.00;;;;;;5092847;28;20110;-76
2021/08/02 00:18:24;;;;;;;10.80;3.40;;;14.60;89.90;;;;;;5092836;28;20085;-76
2021/08/02 00:20:50;;;;;;;12.48;4.15;;;14.60;89.90;;;;;;5092717;28;20111;-78
2021/08/02 00:23:16;;;;;;;7.22;3.13;;;14.60;89.70;;;;;;5093064;28;20123;-77
2021/08/02 00:25:41;;;;;;;8.45;3.58;;;14.60;89.70;;;;;;5092574;28;20089;-76
2021/08/02 00:28:07;;;;;;;6.10;3.60;;;14.60;89.80;;;;;;5092842;28;20028;-78
2021/08/02 00:30:33;;;;;;;11.00;3.35;;;14.60;89.80;;;;;;5094576;28;20016;-77
2021/08/02 00:32:59;;;;;;;7.47;3.63;;;14.60;90.00;;;;;;5093900;28;20089;-75
2021/08/02 00:35:24;;;;;;;7.57;3.35;;;14.60;89.90;;;;;;5098421;28;20031;-77
2021/08/02 00:38:00;;;;;;;8.23;3.50;;;14.60;89.80;;;;;;5103663;28;20050;-77
2021/08/02 00:41:01;;;;;;;7.43;3.13;;;14.60;89.70;;;;;;5094690;28;20111;-79
2021/08/02 00:44:00;;;;;;;7.10;2.85;;;14.60;89.70;;;;;;5093986;28;20050;-77
2021/08/02 00:46:34;;;;;;;8.43;2.97;;;14.60;89.90;;;;;;5092049;28;20028;-77
2021/08/02 00:49:05;;;;;;;10.00;3.05;;;14.60;89.90;;;;;;5092319;28;20027;-77
2021/08/02 00:51:45;;;;;;;8.23;3.17;;;14.70;90.00;;;;;;5093279;28;20020;-76
2021/08/02 00:54:12;;;;;;;10.48;3.58;;;14.70;90.00;;;;;;5102601;28;20028;-76
2021/08/02 00:56:40;;;;;;;7.20;3.55;;;14.70;90.00;;;;;;5104412;28;20067;-76
2021/08/02 00:59:06;;;;;;;8.60;2.90;;;14.70;89.90;;;;;;5094090;28;20027;-76
2021/08/02 01:01:35;;;;;;;8.18;3.58;;;14.70;90.10;;;;;;5093116;28;20073;-77
2021/08/02 01:04:01;;;;;;;8.82;3.17;;;14.70;90.10;;;;;;5091759;28;20023;-76
2021/08/02 01:06:32;;;;;;;9.00;2.92;;;14.70;90.10;;;;;;5091512;28;20112;-78
2021/08/02 01:09:05;;;;;;;7.47;2.92;;;14.70;90.10;;;;;;5091908;28;20020;-76
2021/08/02 01:11:33;;;;;;;14.18;3.22;;;14.70;90.00;;;;;;5091151;28;20035;-77
2021/08/02 01:14:02;;;;;;;9.60;3.88;;;14.70;90.10;;;;;;5091646;28;20078;-77
2021/08/02 01:16:29;;;;;;;7.57;2.90;;;14.70;90.10;;;;;;5091386;28;20029;-77
2021/08/02 01:18:57;;;;;;;7.88;3.30;;;14.70;90.20;;;;;;5091643;28;20056;-76
2021/08/02 01:21:25;;;;;;;21.65;4.28;;;14.70;90.10;;;;;;5091619;28;20329;-77
2021/08/02 01:23:51;;;;;;;7.70;2.80;;;14.70;90.10;;;;;;5091556;28;20028;-77
2021/08/02 01:26:41;;;;;;;8.48;3.15;;;14.70;90.00;;;;;;5091568;28;20165;-77
2021/08/02 01:29:26;;;;;;;;;;;14.70;90.00;;;;;;5092010;28;20024;-77
2021/08/02 01:31:51;;;;;;;7.93;2.97;;;14.70;90.10;;;;;;5090873;28;19946;-78
2021/08/02 01:34:17;;;;;;;8.52;3.38;;;14.70;90.10;;;;;;5091539;28;20063;-74
2021/08/02 01:36:43;;;;;;;8.43;2.97;;;14.70;90.10;;;;;;5091342;28;20020;-76
2021/08/02 01:39:08;;;;;;;8.02;3.08;;;14.70;90.10;;;;;;5091794;28;20027;-76
2021/08/02 01:41:34;;;;;;;7.82;3.28;;;14.70;90.20;;;;;;5093488;28;20043;-76
2021/08/02 01:43:59;;;;;;;10.70;3.45;;;14.70;90.10;;;;;;5092681;28;20070;-77
2021/08/02 01:46:41;;;;;;;8.68;3.35;;;14.80;90.20;;;;;;5091147;28;20495;-77
2021/08/02 01:49:20;;;;;;;11.15;3.20;;;14.80;90.10;;;;;;5091539;28;20047;-80
2021/08/02 01:51:49;;;;;;;9.98;3.42;;;14.80;90.10;;;;;;5091599;28;20157;-77
2021/08/02 01:54:25;;;;;;;8.60;3.20;;;14.70;90.00;;;;;;5091288;28;20028;-77
2021/08/02 01:56:58;;;;;;;7.05;2.80;;;14.80;90.10;;;;;;5090664;28;20491;-77
2021/08/02 01:59:29;;;;;;;4.90;2.42;;;14.80;90.10;;;;;;5091434;28;20020;-77
2021/08/02 02:02:02;;;;;;;6.00;2.80;;;14.80;90.20;;;;;;5092503;28;20020;-76
2021/08/02 02:04:33;;;;;;;7.25;2.80;;;14.80;90.10;;;;;;5090966;28;20020;-76
2021/08/02 02:07:00;;;;;;;5.53;2.35;;;14.80;90.10;;;;;;5091151;28;20056;-77
2021/08/02 02:09:29;;;;;;;7.97;2.67;;;14.80;90.10;;;;;;5091036;28;20027;-77
2021/08/02 02:11:56;;;;;;;8.73;2.90;;;14.80;90.10;;;;;;5091141;28;20028;-77
2021/08/02 02:14:26;;;;;;;6.68;2.90;;;14.80;90.20;;;;;;5091149;28;20032;-77
2021/08/02 02:16:55;;;;;;;7.72;2.88;;;14.90;90.20;;;;;;5092076;28;20031;-77
2021/08/02 02:19:23;;;;;;;10.35;3.60;;;14.80;90.20;;;;;;5091187;28;20020;-77
2021/08/02 02:21:51;;;;;;;7.55;2.83;;;14.90;90.10;;;;;;5090936;28;20020;-77
2021/08/02 02:24:18;;;;;;;6.15;2.75;;;14.90;90.10;;;;;;5091918;28;20021;-76
2021/08/02 02:26:45;;;;;;;9.00;3.55;;;14.90;90.00;;;;;;5092433;28;20020;-77
2021/08/02 02:29:13;;;;;;;11.73;3.38;;;14.80;89.80;;;;;;5091433;28;20058;-77
2021/08/02 02:31:41;;;;;;;9.18;3.20;;;14.80;89.90;;;;;;5090985;28;20016;-77
2021/08/02 02:34:09;;;;;;;7.60;3.25;;;14.90;89.90;;;;;;5091571;28;20407;-78
2021/08/02 02:36:38;;;;;;;7.32;3.08;;;14.80;89.90;;;;;;5092850;28;20055;-78
2021/08/02 02:39:05;;;;;;;9.63;2.83;;;14.80;90.00;;;;;;5093728;28;20348;-76
2021/08/02 02:41:31;;;;;;;7.03;2.67;;;14.80;90.00;;;;;;5099603;28;20044;-76
2021/08/02 02:43:58;;;;;;;5.45;2.20;;;14.90;90.10;;;;;;5105692;28;20058;-76
2021/08/02 02:46:24;;;;;;;7.05;3.10;;;14.90;90.10;;;;;;5098620;28;20034;-76
2021/08/02 02:48:51;;;;;;;12.82;3.35;;;14.90;90.00;;;;;;5091793;28;20020;-77
2021/08/02 02:51:18;;;;;;;6.75;3.00;;;14.90;90.10;;;;;;5090761;28;20513;-77
2021/08/02 02:53:44;;;;;;;6.15;2.78;;;14.90;90.10;;;;;;5090590;28;20092;-76
2021/08/02 02:56:12;;;;;;;6.63;2.55;;;14.90;90.00;;;;;;5092239;28;20100;-77
2021/08/02 02:58:39;;;;;;;7.82;2.15;;;14.90;90.00;;;;;;5091599;28;20081;-77
2021/08/02 03:01:06;;;;;;;6.15;2.78;;;14.90;90.10;;;;;;5090518;28;20472;-76
2021/08/02 03:03:37;;;;;;;11.65;5.07;;;14.90;90.20;;;;;;5089879;28;20027;-77
2021/08/02 03:06:04;;;;;;;8.88;2.65;;;14.90;90.20;;;;;;5090420;28;20065;-77
2021/08/02 03:08:32;;;;;;;7.82;2.38;;;14.90;90.20;;;;;;5091750;28;20490;-77
2021/08/02 03:10:58;;;;;;;7.05;2.30;;;14.90;90.20;;;;;;5094981;28;20024;-76
2021/08/02 03:13:24;;;;;;;6.63;2.53;;;14.90;90.20;;;;;;5099295;28;20028;-76
2021/08/02 03:15:50;;;;;;;7.43;3.05;;;14.90;90.10;;;;;;5103633;28;20028;-75
2021/08/02 03:18:15;;;;;;;5.70;2.97;;;14.90;90.10;;;;;;5098151;28;20028;-76
2021/08/02 03:20:41;;;;;;;7.00;2.15;;;14.90;90.10;;;;;;5096520;28;20365;-76
2021/08/02 03:23:13;;;;;;;6.03;2.58;;;14.90;90.10;;;;;;5094639;28;20035;-76
2021/08/02 03:25:40;;;;;;;7.28;2.92;;;15.00;90.10;;;;;;5096504;28;20032;-76
2021/08/02 03:28:13;;;;;;;6.25;2.28;;;15.00;90.10;;;;;;5094498;28;20046;-77
2021/08/02 03:30:41;;;;;;;7.53;2.45;;;14.90;90.10;;;;;;5093776;28;20020;-76
2021/08/02 03:33:11;;;;;;;5.30;2.35;;;14.90;89.70;;;;;;5094788;28;20494;-76
2021/08/02 03:35:36;;;;;;;;;;;14.90;89.60;;;;;;5094102;28;20048;-77
2021/08/02 03:38:03;;;;;;;8.15;2.00;;;14.90;89.50;;;;;;5094037;28;19939;-78
2021/08/02 03:40:29;;;;;;;4.38;1.98;;;14.90;89.40;;;;;;5094234;28;20031;-77
2021/08/02 03:42:57;;;;;;;8.75;3.05;;;14.90;89.50;;;;;;5093711;28;20031;-77
2021/08/02 03:45:25;;;;;;;7.07;2.58;;;14.90;89.50;;;;;;5093779;28;20387;-77
2021/08/02 03:47:51;;;;;;;6.45;2.08;;;14.90;89.40;;;;;;5093174;28;20027;-77
2021/08/02 03:50:17;;;;;;;8.32;2.00;;;14.90;89.20;;;;;;5093508;28;20020;-76
2021/08/02 03:52:42;;;;;;;6.68;2.20;;;15.00;89.60;;;;;;5094878;28;20381;-77
2021/08/02 03:55:09;;;;;;;9.70;2.22;;;14.90;89.70;;;;;;5095008;28;20035;-77
2021/08/02 03:57:35;;;;;;;9.00;2.40;;;15.00;89.50;;;;;;5095056;28;20024;-78
2021/08/02 04:00:01;;;;;;;6.53;2.72;;;15.00;89.20;;;;;;5094662;28;20032;-77
2021/08/02 04:02:26;;;;;;;7.03;2.10;;;15.00;89.50;;;;;;5093314;28;20066;-77
2021/08/02 04:04:52;;;;;;;5.70;2.22;;;15.00;89.40;;;;;;5093118;28;20461;-77
2021/08/02 04:07:18;;;;;;;6.82;2.42;;;15.00;89.40;;;;;;5094701;28;20478;-77
2021/08/02 04:09:43;;;;;;;8.13;2.20;;;15.00;89.30;;;;;;5094290;28;20080;-77
2021/08/02 04:12:09;;;;;;;7.53;2.30;;;15.00;89.20;;;;;;5094494;28;20035;-77
2021/08/02 04:14:39;;;;;;;5.78;2.53;;;15.00;89.20;;;;;;5092720;28;20028;-76
2021/08/02 04:17:05;;;;;;;7.97;1.95;;;15.00;89.20;;;;;;5092653;28;20028;-78
2021/08/02 04:19:31;;;;;;;4.90;1.80;;;15.00;88.90;;;;;;5092461;28;20341;-77
2021/08/02 04:21:58;;;;;;;8.68;2.17;;;15.00;88.90;;;;;;5092650;28;20533;-76
2021/08/02 04:24:25;;;;;;;6.70;2.20;;;15.00;88.90;;;;;;5092880;28;20023;-78
2021/08/02 04:26:51;;;;;;;8.77;1.95;;;15.00;89.00;;;;;;5093861;28;20163;-77
2021/08/02 04:29:17;;;;;;;8.15;1.67;;;15.00;88.70;;;;;;5097905;28;20047;-77
2021/08/02 04:31:43;;;;;;;7.93;1.92;;;15.00;88.90;;;;;;5106523;28;20035;-77
2021/08/02 04:34:09;;;;;;;4.65;1.98;;;14.90;88.90;;;;;;5107481;28;20119;-78
2021/08/02 04:36:34;;;;;;;6.22;1.85;;;14.90;89.00;;;;;;5099114;28;20424;-79
2021/08/02 04:39:01;;;;;;;7.15;1.88;;;15.00;89.10;;;;;;5094085;28;20110;-78
2021/08/02 04:41:26;;;;;;;5.93;2.03;;;15.00;89.20;;;;;;5093302;28;20055;-77
2021/08/02 04:43:52;;;;;;;6.00;2.00;;;15.00;89.30;;;;;;5103236;28;20012;-78
2021/08/02 04:46:18;;;;;;;7.95;2.55;;;15.00;89.20;;;;;;5107485;28;20032;-79
2021/08/02 04:48:44;;;;;;;7.88;1.98;;;15.00;89.10;;;;;;5092600;28;20194;-78
2021/08/02 04:51:10;;;;;;;8.75;2.25;;;15.00;89.20;;;;;;5092140;28;20020;-79
2021/08/02 04:53:35;;;;;;;6.35;2.50;;;15.00;89.20;;;;;;5091991;28;20388;-79
2021/08/02 04:56:01;;;;;;;7.15;2.35;;;15.00;89.10;;;;;;5091916;28;20028;-79
2021/08/02 04:58:27;;;;;;;5.32;2.15;;;15.00;89.10;;;;;;5092072;28;20123;-79
2021/08/02 05:00:52;;;;;;;10.13;3.15;;;15.00;89.00;;;;;;5092166;28;20100;-78
2021/08/02 05:03:18;;;;;;;6.30;2.38;;;15.00;89.20;;;;;;5092302;28;20038;-79
2021/08/02 05:05:44;;;;;;;6.07;2.35;;;15.00;89.30;;;;;;5092303;28;20031;-80
2021/08/02 05:08:09;;;;;;;5.68;2.33;;;15.00;89.20;;;;;;5095994;28;20093;-79
2021/08/02 05:10:35;;;;;;;7.15;2.58;;;15.00;89.40;;;;;;5092010;28;20024;-79
2021/08/02 05:13:00;;;;;;;8.48;2.25;;;15.00;89.40;;;;;;5091662;28;20032;-78
2021/08/02 05:15:26;;;;;;;9.43;2.17;;;15.10;89.30;;;;;;5091594;28;20016;-78
2021/08/02 05:17:52;;;;;;;9.10;2.30;;;15.10;89.30;;;;;;5091579;28;20055;-77
2021/08/02 05:20:19;;;;;;;5.03;2.30;;;15.10;89.30;;;;;;5093510;28;20043;-77
2021/08/02 05:22:46;;;;;;;7.88;2.30;;;15.10;89.20;;;;;;5091601;28;20024;-77
2021/08/02 05:25:13;;;;;;;9.95;2.75;;;15.10;89.20;;;;;;5091959;28;20030;-77
2021/08/02 05:27:38;;;;;;;4.30;2.00;;;15.10;89.30;;;;;;5091878;28;20024;-77
2021/08/02 05:30:05;;;;;;;7.85;2.20;;;15.10;89.30;;;;;;5092877;28;20464;-77
2021/08/02 05:32:30;;;;;;;9.23;2.53;;;15.20;89.40;;;;;;5090865;28;20087;-78
2021/08/02 05:34:56;;;;;;;4.82;1.90;;;15.20;89.60;;;;;;5091367;28;20114;-78
2021/08/02 05:37:22;;;;;;;6.13;2.38;;;15.20;89.30;;;;;;5092655;28;20024;-78
2021/08/02 05:39:47;;;;;;;5.78;2.00;;;15.20;89.10;;;;;;5091495;28;20065;-77
2021/08/02 05:42:13;;;;;;;6.65;2.22;;;15.30;89.10;;;;;;5092936;28;20031;-78
2021/08/02 05:44:39;;;;;;;6.68;2.22;;;15.30;88.90;;;;;;5091846;28;20384;-77
2021/08/02 05:47:07;;;;;;;6.35;1.85;;;15.30;88.60;;;;;;5091704;28;20020;-77
2021/08/02 05:49:33;;;;;;;10.20;2.47;;;15.40;88.40;;;;;;5092380;28;20101;-79
2021/08/02 05:52:00;;;;;;;6.68;2.00;;;15.50;88.60;;;;;;5092607;28;20031;-78
2021/08/02 05:54:26;;;;;;;9.10;2.25;;;15.60;88.10;;;;;;5099957;28;20043;-79
2021/08/02 05:56:52;;;;;;;7.47;2.50;;;15.70;87.60;;;;;;5097238;28;20464;-78
2021/08/02 05:59:17;;;;;;;7.68;2.00;;;15.80;87.50;;;;;;5096233;28;20024;-79
2021/08/02 06:01:43;;;;;;;5.50;1.85;;;15.90;87.30;;;;;;5092623;28;20055;-76
2021/08/02 06:04:08;;;;;;;7.53;2.42;;;16.00;86.80;;;;;;5091761;28;20028;-77
2021/08/02 06:06:34;;;;;;;5.20;1.75;;;16.10;86.50;;;;;;5091644;28;20024;-77
2021/08/02 06:09:00;;;;;;;11.85;2.25;;;16.20;86.40;;;;;;5091214;28;20460;-78
2021/08/02 06:11:25;;;;;;;10.43;2.15;;;16.30;86.00;;;;;;5091301;28;20093;-77
2021/08/02 06:13:51;;;;;;;6.38;2.13;;;16.30;85.70;;;;;;5091279;28;20029;-77
2021/08/02 06:16:21;;;;;;;8.10;2.38;;;16.30;85.50;;;;;;5092769;28;20016;-77
2021/08/02 06:18:50;;;;;;;6.33;1.67;;;16.30;85.00;;;;;;5101055;28;20361;-77
2021/08/02 06:21:15;;;;;;;5.32;1.98;;;16.30;85.00;;;;;;5110025;28;20258;-76
2021/08/02 06:23:41;;;;;;;7.40;2.13;;;16.30;85.00;;;;;;5106134;28;20517;-75
2021/08/02 06:26:07;;;;;;;7.00;2.15;;;16.40;84.90;;;;;;5095270;28;20024;-77
2021/08/02 06:28:32;;;;;;;4.82;1.80;;;16.50;84.80;;;;;;5091738;28;20035;-78
2021/08/02 06:31:01;;;;;;;6.13;1.73;;;16.60;84.70;;;;;;5091390;28;20052;-78
2021/08/02 06:33:28;;;;;;;5.90;2.28;;;16.70;84.30;;;;;;5093086;28;20539;-77
2021/08/02 06:35:54;;;;;;;5.82;1.77;;;16.80;83.20;;;;;;5091237;28;20028;-77
2021/08/02 06:38:19;;;;;;;4.35;1.60;;;16.90;82.60;;;;;;5091429;28;20016;-77
2021/08/02 06:40:45;;;;;;;7.50;1.50;;;17.10;81.90;;;;;;5091162;28;20035;-79
2021/08/02 06:43:12;;;;;;;4.90;1.50;;;17.20;81.40;;;;;;5094569;28;20031;-78
2021/08/02 06:45:39;;;;;;;6.45;2.30;;;17.30;80.80;;;;;;5097487;28;20028;-79
2021/08/02 06:48:04;;;;;;;9.45;2.15;;;17.40;80.80;;;;;;5108348;28;20052;-78
2021/08/02 06:50:30;;;;;;;4.53;1.80;;;17.50;80.30;;;;;;5107160;28;20058;-78
2021/08/02 06:52:56;;;;;;;3.03;2.15;;;17.60;80.10;;;;;;5094725;28;20039;-76
2021/08/02 06:55:21;;;;;;;6.78;1.50;;;17.70;79.60;;;;;;5094714;28;20028;-76
2021/08/02 06:57:47;;;;;;;6.78;1.40;;;17.80;79.30;;;;;;5094469;28;20028;-78
2021/08/02 07:00:13;;;;;;;6.13;1.50;;;17.90;78.60;;;;;;5094665;28;20464;-78
2021/08/02 07:02:40;;;;;;;7.45;1.63;;;18.00;77.10;;;;;;5094116;28;20085;-79
2021/08/02 07:05:06;;;;;;;4.50;1.58;;;18.00;76.40;;;;;;5094163;28;20032;-77
2021/08/02 07:07:32;;;;;;;4.70;1.42;;;18.00;76.10;;;;;;5094273;28;20020;-77
2021/08/02 07:09:57;;;;;;;9.98;1.83;;;18.00;75.90;;;;;;5093814;28;20020;-76
2021/08/02 07:12:23;;;;;;;3.45;1.10;;;18.00;75.90;;;;;;5093846;28;20392;-75
2021/08/02 07:14:48;;;;;;;5.88;1.80;;;18.10;75.80;;;;;;5093942;28;20114;-78
2021/08/02 07:17:14;;;;;;;3.97;1.13;;;18.20;76.10;;;;;;5094218;28;20089;-77
2021/08/02 07:19:40;;;;;;;9.30;1.45;;;18.30;74.60;;;;;;5095141;28;20028;-78
2021/08/02 07:22:06;;;;;;;4.72;1.10;;;18.30;72.40;;;;;;5094058;28;20027;-79
2021/08/02 07:24:32;;;;;;;6.53;1.58;;;18.40;73.40;;;;;;5095548;28;20057;-77
2021/08/02 07:26:58;;;;;;;4.72;1.20;;;18.40;73.40;;;;;;5094352;28;20115;-78
2021/08/02 07:29:23;;;;;;;4.20;1.02;;;18.50;73.60;;;;;;5094247;28;20159;-78
2021/08/02 07:31:50;;;;;;;4.03;1.10;;;18.50;73.40;;;;;;5099371;28;20032;-76
2021/08/02 07:34:15;;;;;;;5.40;1.50;;;18.50;72.80;;;;;;5096261;28;20032;-78
2021/08/02 07:36:42;;;;;;;4.47;1.33;;;18.40;72.70;;;;;;5101572;28;20024;-79
2021/08/02 07:39:08;;;;;;;7.00;1.23;;;18.30;73.10;;;;;;5096550;28;20031;-77
2021/08/02 07:41:34;;;;;;;5.53;1.00;;;18.50;72.70;;;;;;5093939;28;20024;-78
2021/08/02 07:44:00;;;;;;;7.85;1.10;;;18.70;72.70;;;;;;5093822;28;20089;-78
2021/08/02 07:46:26;;;;;;;6.40;1.30;;;19.00;71.40;;;;;;5095082;28;20456;-78
2021/08/02 07:48:52;;;;;;;3.55;1.02;;;19.30;71.10;;;;;;5095382;28;20024;-77
2021/08/02 07:51:21;;;;;;;5.22;1.30;;;19.50;69.70;;;;;;5094459;28;20035;-77
2021/08/02 07:53:47;;;;;;;4.35;0.70;;;19.70;68.30;;;;;;5093476;28;20078;-77
2021/08/02 07:56:12;;;;;;;3.42;0.88;;;19.80;67.30;;;;;;5093833;28;20345;-78
2021/08/02 07:58:38;;;;;;;5.72;1.15;;;19.90;66.00;;;;;;5095020;28;20048;-77
2021/08/02 08:01:03;;;;;;;4.95;1.60;;;19.80;67.00;;;;;;5093780;28;20032;-77
2021/08/02 08:03:29;;;;;;;4.15;1.02;;;19.80;68.10;;;;;;5095491;28;20073;-77
2021/08/02 08:05:55;;;;;;;5.57;1.25;;;19.80;68.20;;;;;;5103063;28;20028;-77
2021/08/02 08:08:21;;;;;;;5.68;1.10;;;19.90;66.20;;;;;;5110248;28;20020;-76
2021/08/02 08:10:47;;;;;;;5.18;1.27;;;20.10;65.40;;;;;;5109462;28;20044;-77
2021/08/02 08:13:13;;;;;;;4.57;1.08;;;20.20;65.10;;;;;;5103478;28;20028;-78
2021/08/02 08:15:38;;;;;;;4.60;1.42;;;20.20;64.80;;;;;;5094979;28;20024;-78
2021/08/02 08:18:04;;;;;;;4.70;1.25;;;20.10;63.40;;;;;;5092987;28;20495;-79
2021/08/02 08:20:30;;;;;;;10.73;2.10;;;19.80;64.50;;;;;;5094787;28;20051;-78
2021/08/02 08:22:55;;;;;;;10.20;2.00;;;19.70;65.30;;;;;;5094551;28;20020;-79
2021/08/02 08:25:22;;;;;;;3.63;1.00;;;19.70;64.80;;;;;;5093424;28;20051;-77
2021/08/02 08:27:49;;;;;;;6.70;1.35;;;19.90;64.00;;;;;;5093439;28;20016;-77
2021/08/02 08:30:18;;;;;;;2.85;0.90;;;20.20;64.00;;;;;;5093509;28;20028;-78
2021/08/02 08:32:44;;;;;;;6.97;1.20;;;20.50;64.80;;;;;;5095091;28;20039;-77
2021/08/02 08:35:11;;;;;;;4.15;1.42;;;20.90;66.50;;;;;;5096837;28;20111;-77
2021/08/02 08:37:38;;;;;;;5.15;0.95;;;20.90;66.60;;;;;;5097042;28;20024;-77
2021/08/02 08:40:06;;;;;;;5.53;1.20;;;20.80;63.90;;;;;;5095445;28;20457;-77
2021/08/02 08:42:32;;;;;;;7.28;1.33;;;20.60;61.70;;;;;;5092978;28;20028;-77
2021/08/02 08:44:58;;;;;;;5.80;1.05;;;20.40;62.60;;;;;;5092968;28;20024;-77
2021/08/02 08:47:25;;;;;;;3.33;1.00;;;20.20;65.70;;;;;;5096153;28;20035;-78
2021/08/02 08:49:50;;;;;;;4.60;1.10;;;20.00;67.10;;;;;;5100478;28;20142;-78
2021/08/02 08:52:16;;;;;;;2.38;0.98;;;19.90;67.00;;;;;;5103720;28;20024;-79
2021/08/02 08:54:42;;;;;;;6.05;1.15;;;19.80;68.90;;;;;;5099842;28;20071;-78
2021/08/02 08:57:12;;;;;;;5.53;1.10;;;19.70;67.80;;;;;;5092382;28;20020;-79
2021/08/02 08:59:48;;;;;;;7.32;1.20;;;19.60;65.20;;;;;;5092287;28;20032;-79
2021/08/02 09:02:14;;;;;;;5.72;1.33;;;19.40;64.90;;;;;;5092603;28;20054;-79
2021/08/02 09:04:40;;;;;;;4.22;1.30;;;19.40;65.10;;;;;;5092007;28;20020;-78
2021/08/02 09:07:06;;;;;;;4.55;1.27;;;19.40;64.40;;;;;;5093961;28;20081;-77
2021/08/02 09:09:35;;;;;;;3.22;1.10;;;19.30;64.50;;;;;;5093697;28;20032;-76
2021/08/02 09:12:13;;;;;;;3.22;1.00;;;19.30;65.90;;;;;;5092324;28;20020;-77
2021/08/02 09:14:53;;;;;;;6.50;1.52;;;19.20;65.50;;;;;;5091962;28;20403;-77
2021/08/02 09:17:37;;;;;;;7.83;1.40;;;19.20;66.30;;;;;;5092356;28;20069;-78
2021/08/02 09:20:18;;;;;;;2.70;1.00;;;19.30;66.00;;;;;;5091898;28;20270;-78
2021/08/02 09:22:44;;;;;;;6.10;1.05;;;19.30;64.80;;;;;;5093675;28;20031;-78
2021/08/02 09:25:13;;;;;;;5.90;1.27;;;19.40;64.40;;;;;;5092664;28;20020;-78
2021/08/02 09:27:41;;;;;;;5.38;1.20;;;19.40;64.60;;;;;;5092309;28;20034;-78
2021/08/02 09:30:15;;;;;;;5.15;1.35;;;19.50;64.50;;;;;;5092550;28;20028;-77
2021/08/02 09:33:05;;;;;;;3.63;1.00;;;19.60;63.50;;;;;;5092043;28;20051;-77
2021/08/02 09:35:32;;;;;;;5.20;1.27;;;19.70;63.40;;;;;;5092451;28;20044;-78
2021/08/02 09:38:01;;;;;;;5.50;1.20;;;19.80;62.30;;;;;;5091794;28;20438;-77
2021/08/02 09:40:27;;;;;;;7.40;1.05;;;19.80;61.70;;;;;;5091896;28;20017;-78
2021/08/02 09:42:57;;;;;;;7.53;1.65;;;19.90;61.90;;;;;;5092674;28;20103;-78
2021/08/02 09:45:23;;;;;;;;;;;20.10;61.10;;;;;;5092878;28;20020;-78
2021/08/02 09:47:50;;;;;;;9.13;1.27;;;20.20;61.30;;;;;;5095708;28;20085;-79
2021/08/02 09:50:30;;;;;;;4.63;1.30;;;20.20;60.70;;;;;;5093922;28;20020;-76
2021/08/02 09:52:58;;;;;;;6.32;1.38;;;20.30;60.60;;;;;;5100426;28;20020;-77
2021/08/02 09:55:24;;;;;;;3.97;0.98;;;20.40;61.00;;;;;;5105441;28;20020;-78
2021/08/02 09:57:53;;;;;;;3.47;0.90;;;20.40;62.30;;;;;;5106950;28;20421;-77
2021/08/02 10:00:20;;;;;;;4.45;1.08;;;20.30;62.20;;;;;;5098994;28;20016;-77
2021/08/02 10:02:47;;;;;;;4.00;1.00;;;20.30;63.30;;;;;;5093987;28;20031;-78
2021/08/02 10:05:18;;;;;;;3.03;0.90;;;20.40;63.30;;;;;;5091933;28;20028;-78
2021/08/02 10:07:44;;;;;;;4.53;1.00;;;20.40;63.00;;;;;;5091781;28;20027;-79
2021/08/02 10:10:11;;;;;;;3.15;1.15;;;20.50;63.30;;;;;;5091675;28;20135;-78
2021/08/02 10:12:42;;;;;;;5.88;1.17;;;20.40;64.50;;;;;;5092013;28;20028;-78
2021/08/02 10:15:13;;;;;;;5.70;1.10;;;20.40;63.90;;;;;;5092454;28;20012;-78
2021/08/02 10:17:40;;;;;;;3.50;0.98;;;20.40;63.80;;;;;;5094864;28;20073;-78
2021/08/02 10:20:26;;;;;;;6.05;1.10;;;20.40;64.40;;;;;;5096024;28;20104;-78
2021/08/02 10:22:53;;;;;;;2.30;0.80;;;20.40;64.50;;;;;;5095820;28;20028;-77
2021/08/02 10:25:34;;;;;;;1.63;0.90;;;20.30;69.70;;;;;;5095900;28;20043;-78
2021/08/02 10:28:13;;;;;;;9.27;1.50;;;20.30;71.10;;;;;;5096622;28;20024;-78
2021/08/02 10:30:40;;;;;;;4.13;1.17;;;20.40;70.40;;;;;;5095534;28;20099;-78
2021/08/02 10:33:07;;;;;;;4.25;0.90;;;20.50;67.20;;;;;;5095151;28;20083;-78
2021/08/02 10:35:39;;;;;;;2.58;1.05;;;20.60;69.60;;;;;;5095611;28;20546;-79
2021/08/02 10:38:24;;;;;;;3.42;1.25;;;20.80;70.10;;;;;;5095286;28;20134;-77
2021/08/02 10:40:57;;;;;;;3.92;1.00;;;20.90;69.90;;;;;;5095821;28;20024;-78
2021/08/02 10:43:28;;;;;;;4.07;1.00;;;21.10;67.10;;;;;;5095696;28;20481;-78
2021/08/02 10:45:53;;;;;;;2.90;0.93;;;21.20;62.50;;;;;;5096108;28;20031;-78
2021/08/02 10:48:30;;;;;;;5.45;1.15;;;21.30;67.00;;;;;;5095745;28;20031;-78
2021/08/02 10:51:08;;;;;;;4.15;1.10;;;21.40;66.50;;;;;;5096795;28;20146;-76
2021/08/02 10:53:34;;;;;;;4.78;1.27;;;21.40;63.70;;;;;;5095877;28;20126;-78
2021/08/02 10:56:00;;;;;;;5.20;1.15;;;21.50;61.80;;;;;;5107528;28;20021;-77
2021/08/02 10:58:38;;;;;;;7.78;1.65;;;21.70;65.40;;;;;;5092971;28;22068;-77
2021/08/02 11:01:09;;;;;;;3.58;1.00;;;21.80;64.10;;;;;;5075761;28;20028;-78
2021/08/02 11:03:40;;;;;;;5.60;1.27;;;21.80;68.20;;;;;;5074801;28;20386;-78
2021/08/02 11:06:13;;;;;;;2.63;1.00;;;21.90;64.80;;;;;;5074634;28;20031;-77
2021/08/02 11:08:50;;;;;;;5.85;1.60;;;22.10;66.30;;;;;;5074880;28;20012;-77
2021/08/02 11:11:37;;;;;;;3.65;1.20;;;22.40;63.20;;;;;;5076000;28;20021;-78
2021/08/02 11:14:17;;;;;;;2.53;0.75;;;22.60;62.20;;;;;;5079609;28;20120;-78
2021/08/02 11:16:48;;;;;;;2.17;0.80;;;22.80;59.30;;;;;;5079694;28;20023;-78
2021/08/02 11:19:24;;;;;;;5.85;1.40;;;22.90;59.70;;;;;;5077460;28;20012;-77
2021/08/02 11:21:56;;;;;;;5.80;1.00;;;23.10;62.70;;;;;;5075001;28;20032;-77
2021/08/02 11:24:22;;;;;;;4.30;1.23;;;23.30;61.70;;;;;;5074241;28;20485;-77
2021/08/02 11:26:56;;;;;;;2.28;0.60;;;23.30;63.60;;;;;;5074475;28;20051;-78
2021/08/02 11:29:23;;;;;;;4.43;1.35;;;23.30;64.10;;;;;;5074208;28;20051;-76
2021/08/02 11:31:57;;;;;;;3.50;0.98;;;23.40;64.30;;;;;;5076821;28;20062;-78
2021/08/02 11:34:24;;;;;;;5.03;1.20;;;23.50;50.80;;;;;;5075818;28;20048;-78
2021/08/02 11:37:04;;;;;;;2.17;0.68;;;23.50;60.30;;;;;;5075362;28;20050;-78
2021/08/02 11:39:32;;;;;;;2.92;0.93;;;23.60;59.40;;;;;;5077315;28;20028;-77
2021/08/02 11:42:07;;;;;;;3.72;1.27;;;23.50;60.00;;;;;;5084059;28;20039;-78
2021/08/02 11:44:34;;;;;;;3.20;1.38;;;23.40;62.30;;;;;;5092308;28;20084;-77
2021/08/02 11:47:01;;;;;;;4.38;0.93;;;23.40;65.40;;;;;;5080226;28;20025;-77
2021/08/02 11:49:28;;;;;;;4.40;1.05;;;23.30;66.40;;;;;;5074119;28;20028;-77
2021/08/02 11:51:56;;;;;;;5.90;1.00;;;23.40;58.70;;;;;;5075139;28;20020;-80
2021/08/02 11:54:25;;;;;;;2.70;0.77;;;23.50;49.80;;;;;;5074627;28;20137;-79
2021/08/02 11:56:52;;;;;;;2.58;0.93;;;23.40;52.70;;;;;;5073784;28;20044;-77
2021/08/02 11:59:22;;;;;;;4.20;0.90;;;23.30;54.90;;;;;;5073610;28;20021;-78
2021/08/02 12:01:49;;;;;;;4.40;1.00;;;23.40;55.30;;;;;;5073973;28;20021;-77
2021/08/02 12:04:18;;;;;;;3.88;0.90;;;23.50;50.50;;;;;;5073783;28;20032;-77
2021/08/02 12:06:53;;;;;;;1.88;0.80;;;23.50;50.80;;;;;;5073834;28;20107;-78
2021/08/02 12:09:39;;;;;;;3.60;0.95;;;23.60;59.00;;;;;;5073221;28;20020;-79
2021/08/02 12:12:06;;;;;;;1.60;0.70;;;23.70;63.90;;;;;;5073711;28;20021;-78
2021/08/02 12:14:33;;;;;;;5.00;0.98;;;23.90;64.10;;;;;;5074923;28;20123;-78
2021/08/02 12:17:09;;;;;;;3.67;1.00;;;24.00;64.70;;;;;;5074682;28;20094;-78
2021/08/02 12:19:48;;;;;;;4.00;1.52;;;23.90;56.90;;;;;;5073210;28;20029;-77
2021/08/02 12:22:15;;;;;;;3.05;0.85;;;23.80;62.50;;;;;;5073511;28;20021;-78
2021/08/02 12:24:55;;;;;;;2.20;1.00;;;23.70;58.70;;;;;;5074461;28;20025;-77
2021/08/02 12:27:22;;;;;;;3.63;1.33;;;23.70;61.70;;;;;;5073005;28;20028;-76
2021/08/02 12:30:09;;;;;;;4.15;1.00;;;23.70;57.00;;;;;;5073679;28;20024;-78
2021/08/02 12:32:42;;;;;;;3.20;0.90;;;23.80;57.60;;;;;;5073342;28;20032;-78
2021/08/02 12:35:14;;;;;;;3.38;1.20;;;23.90;60.00;;;;;;5073362;28;20033;-77
2021/08/02 12:37:40;;;;;;;5.57;1.35;;;23.90;62.70;;;;;;5073319;28;20587;-78
2021/08/02 12:40:09;;;;;;;6.30;1.50;;;23.80;54.10;;;;;;5072684;28;20031;-78
2021/08/02 12:42:36;;;;;;;2.65;1.00;;;23.70;55.60;;;;;;5073975;28;20492;-77
2021/08/02 12:45:07;;;;;;;7.80;1.17;;;23.60;65.60;;;;;;5073136;28;20025;-76
2021/08/02 12:47:33;;;;;;;3.13;1.00;;;23.60;63.70;;;;;;5073971;28;20021;-78
2021/08/02 12:49:59;;;;;;;6.03;1.10;;;23.50;62.70;;;;;;5073530;28;20021;-78
2021/08/02 12:52:28;;;;;;;3.15;1.20;;;23.30;52.70;;;;;;5073270;28;20028;-77
2021/08/02 12:54:59;;;;;;;3.75;1.23;;;22.90;62.40;;;;;;5073369;28;20067;-79